Time;durP1;ratioP1;P1;durP2;ratioP2;P2;SDS_P1;SDS_P2;PMS_P1;PMS_P2;Temp;Humidity;BMP_temperature;BMP_pressure;BME280_temperature;BME280_humidity;BME280_pressure;Samples;Min_cycle;Max_cycle;Signal;HPM_P1;HPM_P2
2022/04/07 00:01:28;;;;;;;13.35;3.60;;;;;;;;;;5053655;28;20047;-66
2022/04/07 00:03:54;;;;;;;6.50;2.90;;;;;;;;;;5046948;28;20041;-67
2022/04/07 00:06:21;;;;;;;7.10;2.55;;;;;;;;;;5047293;28;20414;-67
2022/04/07 00:08:47;;;;;;;13.80;3.80;;;;;;;;;;5046580;28;20087;-67
2022/04/07 00:11:13;;;;;;;8.63;3.22;;;;;;;;;;5058676;28;20132;-67
2022/04/07 00:13:39;;;;;;;8.30;3.20;;;;;;;;;;5047509;28;20044;-67
2022/04/07 00:16:06;;;;;;;10.95;3.83;;;;;;;;;;5054601;28;20076;-67
2022/04/07 00:18:33;;;;;;;8.15;2.72;;;;;;;;;;5047206;28;20117;-67
2022/04/07 00:20:59;;;;;;;5.95;3.15;;;;;;;;;;5029731;28;20045;-67
2022/04/07 00:23:26;;;;;;;6.78;3.38;;;;;;;;;;5045953;28;20423;-67
2022/04/07 00:25:52;;;;;;;9.07;3.60;;;;;;;;;;5046713;28;20433;-69
2022/04/07 00:28:18;;;;;;;14.50;4.53;;;;;;;;;;5030214;28;20052;-68
2022/04/07 00:30:44;;;;;;;8.52;3.60;;;;;;;;;;5059910;28;20173;-67
2022/04/07 00:33:11;;;;;;;12.45;3.50;;;;;;;;;;5065118;28;20044;-67
2022/04/07 00:35:37;;;;;;;12.73;3.47;;;;;;;;;;5065608;28;20041;-67
2022/04/07 00:38:03;;;;;;;13.43;3.70;;;;;;;;;;5065072;28;20036;-67
2022/04/07 00:40:30;;;;;;;4.80;2.17;;;;;;;;;;5051023;28;20055;-67
2022/04/07 00:42:56;;;;;;;8.25;2.33;;;;;;;;;;5046492;28;20175;-67
2022/04/07 00:45:23;;;;;;;2.92;0.73;;;;;;;;;;5046657;28;20453;-67
2022/04/07 00:47:50;;;;;;;3.22;0.47;;;;;;;;;;5061226;28;20486;-66
2022/04/07 00:50:17;;;;;;;3.90;0.60;;;;;;;;;;5050494;28;20575;-67
2022/04/07 00:52:46;;;;;;;1.95;0.60;;;;;;;;;;5046261;28;20037;-67
2022/04/07 00:55:13;;;;;;;4.85;0.80;;;;;;;;;;5045123;28;20052;-67
2022/04/07 00:57:40;;;;;;;3.00;1.00;;;;;;;;;;5061213;28;20040;-66
2022/04/07 01:00:07;;;;;;;2.00;1.00;;;;;;;;;;5050958;28;20037;-67
2022/04/07 01:02:34;;;;;;;5.25;1.65;;;;;;;;;;5046413;28;20084;-67
2022/04/07 01:05:00;;;;;;;8.63;2.58;;;;;;;;;;5045176;28;20052;-67
2022/04/07 01:07:26;;;;;;;11.07;3.15;;;;;;;;;;5064719;28;20043;-68
2022/04/07 01:09:53;;;;;;;7.85;3.97;;;;;;;;;;5050097;28;20037;-67
2022/04/07 01:12:19;;;;;;;9.15;3.60;;;;;;;;;;5047704;28;20045;-67
2022/04/07 01:14:53;;;;;;;6.28;2.70;;;;;;;;;;5046071;28;20033;-66
2022/04/07 01:17:20;;;;;;;6.53;3.13;;;;;;;;;;5062493;28;20093;-67
2022/04/07 01:19:47;;;;;;;7.32;3.72;;;;;;;;;;5064490;28;20063;-66
2022/04/07 01:22:14;;;;;;;13.35;3.70;;;;;;;;;;5063545;28;20044;-67
2022/04/07 01:24:40;;;;;;;6.30;3.40;;;;;;;;;;5063934;28;20037;-67
2022/04/07 01:27:06;;;;;;;11.40;3.50;;;;;;;;;;5064887;28;20045;-67
2022/04/07 01:29:33;;;;;;;14.55;4.20;;;;;;;;;;5050521;28;20056;-66
2022/04/07 01:32:01;;;;;;;10.38;4.78;;;;;;;;;;5045251;28;20453;-67
2022/04/07 01:34:27;;;;;;;11.70;4.95;;;;;;;;;;5054356;28;20040;-67
2022/04/07 01:36:54;;;;;;;11.55;4.70;;;;;;;;;;5064234;28;20394;-67
2022/04/07 01:39:25;;;;;;;13.15;5.05;;;;;;;;;;5049413;28;20033;-67
2022/04/07 01:41:51;;;;;;;11.57;5.18;;;;;;;;;;5052756;28;20075;-67
2022/04/07 01:44:18;;;;;;;11.02;4.75;;;;;;;;;;5064953;28;20040;-67
2022/04/07 01:46:44;;;;;;;11.30;5.13;;;;;;;;;;5064458;28;20498;-66
2022/04/07 01:49:11;;;;;;;10.43;4.45;;;;;;;;;;5049252;28;20041;-67
2022/04/07 01:51:38;;;;;;;11.05;3.65;;;;;;;;;;5045397;28;20483;-67
2022/04/07 01:54:04;;;;;;;12.75;4.18;;;;;;;;;;5044792;28;20051;-67
2022/04/07 01:56:31;;;;;;;10.35;3.63;;;;;;;;;;5045426;28;20116;-67
2022/04/07 01:58:57;;;;;;;10.85;3.50;;;;;;;;;;5060294;28;20046;-67
2022/04/07 02:01:23;;;;;;;12.30;2.92;;;;;;;;;;5064050;28;20047;-68
2022/04/07 02:03:49;;;;;;;13.30;3.22;;;;;;;;;;5046635;28;20045;-67
2022/04/07 02:06:17;;;;;;;12.15;3.13;;;;;;;;;;5064048;28;20064;-67
2022/04/07 02:08:44;;;;;;;7.22;3.22;;;;;;;;;;5049370;28;20123;-67
2022/04/07 02:11:11;;;;;;;7.93;2.83;;;;;;;;;;5045422;28;20069;-67
2022/04/07 02:13:39;;;;;;;11.77;2.83;;;;;;;;;;5053262;28;20729;-67
2022/04/07 02:16:06;;;;;;;4.57;2.53;;;;;;;;;;5064140;28;20082;-67
2022/04/07 02:18:32;;;;;;;11.18;2.33;;;;;;;;;;5045632;28;20033;-67
2022/04/07 02:20:58;;;;;;;13.18;3.35;;;;;;;;;;5045470;28;20478;-67
2022/04/07 02:23:26;;;;;;;7.97;2.63;;;;;;;;;;5044751;28;20037;-66
2022/04/07 02:25:52;;;;;;;14.13;2.78;;;;;;;;;;5045664;28;20240;-68
2022/04/07 02:28:19;;;;;;;9.77;3.03;;;;;;;;;;5046110;28;20146;-67
2022/04/07 02:30:45;;;;;;;7.60;2.47;;;;;;;;;;5044754;28;20045;-67
2022/04/07 02:33:12;;;;;;;7.68;2.45;;;;;;;;;;5045413;28;20187;-67
2022/04/07 02:35:39;;;;;;;14.30;3.10;;;;;;;;;;5067921;28;20043;-67
2022/04/07 02:38:05;;;;;;;12.80;2.88;;;;;;;;;;5034269;28;20128;-67
2022/04/07 02:40:31;;;;;;;9.25;3.10;;;;;;;;;;5030938;28;20087;-67
2022/04/07 02:42:57;;;;;;;9.98;2.50;;;;;;;;;;5048618;28;20069;-67
2022/04/07 02:45:23;;;;;;;14.98;4.13;;;;;;;;;;5056277;28;20130;-67
2022/04/07 02:47:49;;;;;;;13.63;3.22;;;;;;;;;;5052896;28;20033;-67
2022/04/07 02:50:17;;;;;;;9.43;3.53;;;;;;;;;;5030107;28;20048;-66
2022/04/07 02:52:43;;;;;;;11.98;3.08;;;;;;;;;;5048618;28;20179;-67
2022/04/07 02:55:09;;;;;;;13.05;2.80;;;;;;;;;;5047591;28;20041;-66
2022/04/07 02:57:36;;;;;;;14.85;3.03;;;;;;;;;;5048624;28;20124;-66
2022/04/07 03:00:05;;;;;;;13.35;3.30;;;;;;;;;;5030391;28;20092;-67
2022/04/07 03:02:32;;;;;;;12.45;2.60;;;;;;;;;;5048648;28;20072;-67
2022/04/07 03:04:58;;;;;;;13.35;2.60;;;;;;;;;;5048060;28;20045;-67
2022/04/07 03:07:24;;;;;;;12.98;3.55;;;;;;;;;;5062922;28;20056;-67
2022/04/07 03:09:50;;;;;;;13.90;3.08;;;;;;;;;;5066496;28;20053;-67
2022/04/07 03:12:17;;;;;;;10.75;3.55;;;;;;;;;;5066383;28;20397;-67
2022/04/07 03:14:43;;;;;;;16.77;3.17;;;;;;;;;;5058681;28;20045;-68
2022/04/07 03:17:09;;;;;;;17.80;4.22;;;;;;;;;;5066124;28;20037;-68
2022/04/07 03:19:36;;;;;;;14.73;2.85;;;;;;;;;;5066737;28;20098;-67
2022/04/07 03:22:02;;;;;;;15.50;2.80;;;;;;;;;;5066955;28;20040;-67
2022/04/07 03:24:28;;;;;;;10.25;2.60;;;;;;;;;;5065995;28;20079;-67
2022/04/07 03:26:54;;;;;;;7.30;1.90;;;;;;;;;;5052390;28;20080;-67
2022/04/07 03:29:21;;;;;;;10.52;1.88;;;;;;;;;;5048190;28;20037;-67
2022/04/07 03:31:49;;;;;;;8.65;1.65;;;;;;;;;;5048108;28;20037;-67
2022/04/07 03:34:15;;;;;;;11.32;1.65;;;;;;;;;;5047831;28;20033;-66
2022/04/07 03:36:42;;;;;;;11.38;1.63;;;;;;;;;;5061615;28;20040;-66
2022/04/07 03:39:09;;;;;;;7.53;1.42;;;;;;;;;;5052837;28;20044;-67
2022/04/07 03:41:35;;;;;;;11.68;1.73;;;;;;;;;;5047326;28;20040;-67
2022/04/07 03:44:03;;;;;;;5.65;1.38;;;;;;;;;;5054101;28;20134;-67
2022/04/07 03:46:30;;;;;;;9.73;1.43;;;;;;;;;;5052205;28;20045;-67
2022/04/07 03:48:56;;;;;;;12.48;2.13;;;;;;;;;;5059887;28;20112;-67
2022/04/07 03:51:22;;;;;;;10.95;1.98;;;;;;;;;;5065995;28;20049;-67
2022/04/07 03:53:48;;;;;;;10.00;2.40;;;;;;;;;;5047946;28;20135;-67
2022/04/07 03:56:15;;;;;;;9.50;1.90;;;;;;;;;;5051366;28;20041;-67
2022/04/07 03:58:41;;;;;;;10.27;2.05;;;;;;;;;;5048052;28;20132;-67
2022/04/07 04:01:07;;;;;;;7.43;1.77;;;;;;;;;;5065268;28;20040;-67
2022/04/07 04:03:33;;;;;;;10.93;2.30;;;;;;;;;;5066261;28;20078;-66
2022/04/07 04:06:00;;;;;;;11.48;2.22;;;;;;;;;;5051645;28;20060;-67
2022/04/07 04:08:26;;;;;;;15.65;4.25;;;;;;;;;;5046332;28;20120;-67
2022/04/07 04:10:52;;;;;;;10.45;2.40;;;;;;;;;;5046920;28;20487;-68
2022/04/07 04:13:18;;;;;;;10.68;3.60;;;;;;;;;;5047036;28;20399;-67
2022/04/07 04:15:44;;;;;;;9.50;2.55;;;;;;;;;;5059277;28;20097;-67
2022/04/07 04:18:11;;;;;;;12.40;3.17;;;;;;;;;;5064956;28;20474;-67
2022/04/07 04:20:38;;;;;;;11.82;2.63;;;;;;;;;;5065529;28;20565;-67
2022/04/07 04:23:04;;;;;;;29.15;4.50;;;;;;;;;;5046880;28;20076;-67
2022/04/07 04:25:31;;;;;;;17.10;3.15;;;;;;;;;;5051998;28;20045;-67
2022/04/07 04:27:57;;;;;;;21.05;4.03;;;;;;;;;;5046800;28;20071;-67
2022/04/07 04:30:24;;;;;;;15.40;3.40;;;;;;;;;;5028748;28;20041;-67
2022/04/07 04:32:50;;;;;;;24.77;3.88;;;;;;;;;;5046861;28;20048;-67
2022/04/07 04:35:16;;;;;;;25.77;5.32;;;;;;;;;;5059071;28;20040;-67
2022/04/07 04:37:42;;;;;;;18.15;4.20;;;;;;;;;;5064002;28;20083;-67
2022/04/07 04:40:09;;;;;;;20.75;3.38;;;;;;;;;;5047318;28;20076;-67
2022/04/07 04:42:35;;;;;;;19.02;3.63;;;;;;;;;;5047261;28;20024;-67
2022/04/07 04:45:01;;;;;;;18.02;3.78;;;;;;;;;;5052386;28;20037;-66
2022/04/07 04:47:27;;;;;;;17.08;3.33;;;;;;;;;;5046582;28;20033;-68
2022/04/07 04:49:53;;;;;;;17.65;3.05;;;;;;;;;;5045969;28;20491;-68
2022/04/07 04:52:20;;;;;;;14.35;3.20;;;;;;;;;;5029784;28;20052;-67
2022/04/07 04:54:46;;;;;;;18.20;4.50;;;;;;;;;;5057258;28;20514;-66
2022/04/07 04:57:12;;;;;;;20.98;3.45;;;;;;;;;;5064409;28;20387;-66
2022/04/07 04:59:38;;;;;;;21.20;3.50;;;;;;;;;;5065286;28;20044;-67
2022/04/07 05:02:05;;;;;;;15.27;2.28;;;;;;;;;;5063183;28;20044;-67
2022/04/07 05:04:31;;;;;;;15.13;2.95;;;;;;;;;;5050393;28;20049;-67
2022/04/07 05:06:58;;;;;;;22.92;4.07;;;;;;;;;;5045866;28;20242;-67
2022/04/07 05:09:24;;;;;;;14.95;2.55;;;;;;;;;;5045166;28;20041;-68
2022/04/07 05:11:50;;;;;;;16.00;2.78;;;;;;;;;;5047260;28;20041;-69
2022/04/07 05:14:16;;;;;;;29.95;4.13;;;;;;;;;;5057401;28;20393;-67
2022/04/07 05:16:43;;;;;;;16.15;3.05;;;;;;;;;;5043995;28;20056;-69
2022/04/07 05:19:09;;;;;;;24.92;3.33;;;;;;;;;;5045828;28;20478;-68
2022/04/07 05:21:35;;;;;;;15.82;3.42;;;;;;;;;;5047544;28;20043;-68
2022/04/07 05:24:01;;;;;;;18.88;3.72;;;;;;;;;;5048673;28;20075;-68
2022/04/07 05:26:27;;;;;;;20.48;4.22;;;;;;;;;;5045865;28;20597;-69
2022/04/07 05:28:53;;;;;;;18.13;3.97;;;;;;;;;;5045549;28;20041;-69
2022/04/07 05:31:20;;;;;;;15.02;4.00;;;;;;;;;;5051518;28;20053;-69
2022/04/07 05:33:46;;;;;;;14.07;3.67;;;;;;;;;;5064534;28;20448;-68
2022/04/07 05:36:12;;;;;;;17.58;3.65;;;;;;;;;;5064258;28;20278;-68
2022/04/07 05:38:38;;;;;;;13.52;3.75;;;;;;;;;;5063970;28;20033;-67
2022/04/07 05:41:04;;;;;;;15.68;3.88;;;;;;;;;;5057498;28;20045;-67
2022/04/07 05:43:30;;;;;;;17.35;4.18;;;;;;;;;;5045987;28;20036;-66
2022/04/07 05:45:56;;;;;;;18.83;4.45;;;;;;;;;;5028132;28;20070;-67
2022/04/07 05:48:22;;;;;;;16.08;3.92;;;;;;;;;;5047999;28;20028;-67
2022/04/07 05:50:49;;;;;;;23.90;1.20;;;;;;;;;;5062609;28;20073;-66
2022/04/07 05:53:16;;;;;;;9.15;0.63;;;;;;;;;;5062977;28;20120;-67
2022/04/07 05:55:42;;;;;;;1.27;0.20;;;;;;;;;;5063613;28;20040;-67
2022/04/07 05:58:08;;;;;;;2.50;0.20;;;;;;;;;;5062647;28;20051;-67
2022/04/07 06:00:37;;;;;;;2.50;0.22;;;;;;;;;;5063033;28;20091;-67
2022/04/07 06:03:03;;;;;;;2.65;0.20;;;;;;;;;;5063894;28;20067;-67
2022/04/07 06:05:30;;;;;;;1.98;0.20;;;;;;;;;;5063033;28;20536;-69
2022/04/07 06:07:58;;;;;;;1.35;0.45;;;;;;;;;;5061901;28;20044;-68
2022/04/07 06:10:24;;;;;;;6.07;0.52;;;;;;;;;;5055270;28;20613;-67
2022/04/07 06:12:50;;;;;;;2.47;0.60;;;;;;;;;;5067815;28;20072;-67
2022/04/07 06:15:16;;;;;;;3.38;0.40;;;;;;;;;;5066101;28;20547;-67
2022/04/07 06:17:44;;;;;;;5.72;0.80;;;;;;;;;;5067911;28;20041;-67
2022/04/07 06:20:11;;;;;;;3.50;1.13;;;;;;;;;;5060469;28;20041;-67
2022/04/07 06:22:38;;;;;;;10.10;1.00;;;;;;;;;;5030267;28;20049;-67
2022/04/07 06:25:04;;;;;;;7.30;0.93;;;;;;;;;;5048474;28;20032;-67
2022/04/07 06:27:37;;;;;;;9.27;0.68;;;;;;;;;;5049004;28;20079;-66
2022/04/07 06:30:04;;;;;;;7.05;1.15;;;;;;;;;;5055111;28;20033;-67
2022/04/07 06:32:30;;;;;;;5.25;0.55;;;;;;;;;;5052604;28;20045;-67
2022/04/07 06:34:57;;;;;;;4.53;0.60;;;;;;;;;;5048393;28;20064;-67
2022/04/07 06:37:23;;;;;;;4.10;0.40;;;;;;;;;;5048109;28;20044;-67
2022/04/07 06:39:49;;;;;;;5.57;0.88;;;;;;;;;;5056753;28;20072;-67
2022/04/07 06:42:15;;;;;;;7.15;0.50;;;;;;;;;;5067082;28;20032;-67
2022/04/07 06:44:42;;;;;;;5.97;0.82;;;;;;;;;;5067210;28;20044;-67
2022/04/07 06:47:08;;;;;;;5.97;2.08;;;;;;;;;;5066847;28;20041;-67
2022/04/07 06:49:34;;;;;;;6.88;0.40;;;;;;;;;;5059813;28;20546;-67
2022/04/07 06:52:00;;;;;;;4.60;0.38;;;;;;;;;;5048181;28;20071;-67
2022/04/07 06:54:26;;;;;;;4.05;0.28;;;;;;;;;;5047992;28;20084;-67
2022/04/07 06:56:53;;;;;;;4.97;0.50;;;;;;;;;;5048099;28;20036;-68
2022/04/07 06:59:19;;;;;;;1.88;0.30;;;;;;;;;;5056070;28;20051;-67
2022/04/07 07:01:45;;;;;;;1.08;0.20;;;;;;;;;;5066921;28;20067;-67
2022/04/07 07:04:11;;;;;;;3.22;0.40;;;;;;;;;;5066705;28;20048;-67
2022/04/07 07:06:37;;;;;;;2.35;0.30;;;;;;;;;;5066683;28;20057;-67
2022/04/07 07:09:04;;;;;;;3.88;1.40;;;;;;;;;;5041369;28;20052;-67
2022/04/07 07:11:30;;;;;;;3.08;1.08;;;;;;;;;;5047927;28;20120;-67
2022/04/07 07:13:56;;;;;;;1.85;0.38;;;;;;;;;;5047822;28;20080;-67
2022/04/07 07:16:22;;;;;;;5.68;0.50;;;;;;;;;;5063500;28;20037;-69
2022/04/07 07:18:48;;;;;;;3.55;0.40;;;;;;;;;;5058820;28;20037;-67
2022/04/07 07:21:14;;;;;;;2.30;0.30;;;;;;;;;;5066089;28;20059;-67
2022/04/07 07:23:40;;;;;;;2.55;0.30;;;;;;;;;;5047868;28;20044;-67
2022/04/07 07:26:08;;;;;;;2.20;0.30;;;;;;;;;;5066558;28;20131;-67
2022/04/07 07:28:34;;;;;;;2.83;0.32;;;;;;;;;;5059934;28;20049;-67
2022/04/07 07:31:00;;;;;;;4.18;0.40;;;;;;;;;;5047235;28;20129;-67
2022/04/07 07:33:26;;;;;;;6.13;0.40;;;;;;;;;;5047786;28;20029;-67
2022/04/07 07:35:52;;;;;;;4.30;0.70;;;;;;;;;;5047436;28;20191;-67
2022/04/07 07:38:18;;;;;;;3.38;0.60;;;;;;;;;;5035399;28;20111;-66
2022/04/07 07:40:45;;;;;;;2.28;0.50;;;;;;;;;;5066193;28;20048;-67
2022/04/07 07:43:11;;;;;;;5.45;0.43;;;;;;;;;;5065954;28;20045;-66
2022/04/07 07:45:37;;;;;;;1.50;0.28;;;;;;;;;;5066842;28;20501;-67
2022/04/07 07:48:03;;;;;;;4.90;0.40;;;;;;;;;;5059989;28;20041;-67
2022/04/07 07:50:29;;;;;;;1.88;0.28;;;;;;;;;;5047306;28;20502;-67
2022/04/07 07:52:56;;;;;;;4.20;0.30;;;;;;;;;;5046360;28;20045;-67
2022/04/07 07:55:22;;;;;;;3.75;0.50;;;;;;;;;;5046904;28;20045;-69
2022/04/07 07:57:48;;;;;;;4.40;0.50;;;;;;;;;;5053389;28;20075;-66
2022/04/07 08:00:16;;;;;;;2.50;0.82;;;;;;;;;;5047629;28;20551;-67
2022/04/07 08:02:43;;;;;;;1.92;0.40;;;;;;;;;;5065989;28;20037;-67
2022/04/07 08:05:10;;;;;;;8.48;0.77;;;;;;;;;;5065748;28;20048;-67
2022/04/07 08:07:43;;;;;;;2.50;0.20;;;;;;;;;;5058795;28;20056;-67
2022/04/07 08:10:09;;;;;;;2.63;0.30;;;;;;;;;;5046628;28;20045;-67
2022/04/07 08:12:36;;;;;;;4.53;0.50;;;;;;;;;;5046844;28;20045;-67
2022/04/07 08:15:03;;;;;;;5.07;0.30;;;;;;;;;;5054124;28;20040;-67
2022/04/07 08:17:29;;;;;;;1.23;0.30;;;;;;;;;;5059196;28;20112;-67
2022/04/07 08:19:56;;;;;;;5.75;0.63;;;;;;;;;;5046638;28;20052;-67
2022/04/07 08:22:22;;;;;;;2.35;0.77;;;;;;;;;;5046187;28;20407;-68
2022/04/07 08:24:48;;;;;;;3.28;0.65;;;;;;;;;;5047383;28;20505;-67
2022/04/07 08:27:14;;;;;;;1.40;0.38;;;;;;;;;;5052255;28;20041;-67
2022/04/07 08:29:40;;;;;;;4.63;0.30;;;;;;;;;;5059846;28;20130;-67
2022/04/07 08:32:07;;;;;;;7.30;0.57;;;;;;;;;;5045570;28;20041;-67
2022/04/07 08:34:34;;;;;;;1.58;0.30;;;;;;;;;;5046716;28;20154;-67
2022/04/07 08:37:00;;;;;;;4.00;0.30;;;;;;;;;;5051818;28;20044;-68
2022/04/07 08:39:26;;;;;;;3.88;0.47;;;;;;;;;;5065192;28;20032;-68
2022/04/07 08:41:53;;;;;;;2.60;0.28;;;;;;;;;;5064504;28;20517;-67
2022/04/07 08:44:20;;;;;;;5.85;0.47;;;;;;;;;;5065838;28;20522;-67
2022/04/07 08:46:52;;;;;;;4.78;0.45;;;;;;;;;;5058412;28;20049;-67
2022/04/07 08:49:20;;;;;;;3.45;0.50;;;;;;;;;;5046755;28;20044;-67
2022/04/07 08:51:47;;;;;;;3.53;0.25;;;;;;;;;;5046326;28;20074;-67
2022/04/07 08:54:14;;;;;;;8.13;0.70;;;;;;;;;;5045174;28;20037;-67
2022/04/07 08:56:40;;;;;;;3.25;0.40;;;;;;;;;;5052587;28;20045;-67
2022/04/07 08:59:06;;;;;;;2.70;0.47;;;;;;;;;;5064771;28;20109;-67
2022/04/07 09:01:33;;;;;;;4.10;0.60;;;;;;;;;;5064568;28;20028;-67
2022/04/07 09:03:59;;;;;;;2.15;0.30;;;;;;;;;;5064825;28;20044;-67
2022/04/07 09:06:25;;;;;;;3.40;0.35;;;;;;;;;;5059070;28;20908;-67
2022/04/07 09:08:52;;;;;;;4.93;0.60;;;;;;;;;;5045426;28;20437;-69
2022/04/07 09:11:19;;;;;;;5.25;0.60;;;;;;;;;;5046496;28;20445;-67
2022/04/07 09:13:46;;;;;;;3.13;0.38;;;;;;;;;;5049599;28;20085;-66
2022/04/07 09:16:14;;;;;;;6.55;0.45;;;;;;;;;;5054123;28;20106;-67
2022/04/07 09:18:42;;;;;;;5.35;0.50;;;;;;;;;;5045848;28;20498;-67
2022/04/07 09:21:16;;;;;;;5.88;0.70;;;;;;;;;;5045463;28;20033;-67
2022/04/07 09:23:43;;;;;;;5.45;0.52;;;;;;;;;;5045283;28;20045;-67
2022/04/07 09:26:13;;;;;;;3.92;0.52;;;;;;;;;;5053311;28;20086;-67
2022/04/07 09:28:39;;;;;;;10.38;0.60;;;;;;;;;;5064902;28;20052;-67
2022/04/07 09:31:06;;;;;;;10.40;0.90;;;;;;;;;;5064060;28;20088;-67
2022/04/07 09:33:32;;;;;;;7.78;0.73;;;;;;;;;;5064290;28;20482;-67
2022/04/07 09:35:59;;;;;;;12.63;1.02;;;;;;;;;;5056002;28;20514;-67
2022/04/07 09:38:26;;;;;;;7.30;1.27;;;;;;;;;;5045313;28;20482;-67
2022/04/07 09:40:52;;;;;;;5.30;0.57;;;;;;;;;;5045790;28;20053;-69
2022/04/07 09:43:18;;;;;;;11.13;0.93;;;;;;;;;;5048167;28;20436;-67
2022/04/07 09:45:46;;;;;;;7.47;0.98;;;;;;;;;;5057864;28;20052;-67
2022/04/07 09:48:18;;;;;;;9.88;2.15;;;;;;;;;;5068265;28;20052;-67
2022/04/07 09:51:02;;;;;;;6.25;1.05;;;;;;;;;;5051131;28;20662;-67
2022/04/07 09:53:35;;;;;;;8.88;1.40;;;;;;;;;;5065868;28;20036;-67
2022/04/07 09:56:01;;;;;;;6.38;0.70;;;;;;;;;;5055595;28;20126;-67
2022/04/07 09:58:28;;;;;;;8.48;1.08;;;;;;;;;;5049843;28;20140;-67
2022/04/07 10:00:56;;;;;;;12.48;1.33;;;;;;;;;;5049620;28;20383;-67
2022/04/07 10:03:23;;;;;;;7.53;1.13;;;;;;;;;;5049436;28;20052;-67
2022/04/07 10:05:49;;;;;;;5.45;1.25;;;;;;;;;;5061694;28;20057;-67
2022/04/07 10:08:16;;;;;;;7.35;1.23;;;;;;;;;;5067296;28;20067;-67
2022/04/07 10:10:43;;;;;;;13.35;1.50;;;;;;;;;;5067861;28;20459;-67
2022/04/07 10:13:10;;;;;;;8.52;0.93;;;;;;;;;;5049548;28;20045;-67
2022/04/07 10:15:37;;;;;;;9.57;1.10;;;;;;;;;;5063762;28;20045;-67
2022/04/07 10:18:05;;;;;;;10.50;1.80;;;;;;;;;;5067888;28;20119;-67
2022/04/07 10:20:33;;;;;;;11.20;1.20;;;;;;;;;;5063970;28;20043;-68
2022/04/07 10:23:23;;;;;;;15.93;1.40;;;;;;;;;;5049189;28;20409;-67
2022/04/07 10:25:49;;;;;;;7.45;1.25;;;;;;;;;;5061314;28;20131;-67
2022/04/07 10:28:16;;;;;;;10.57;1.77;;;;;;;;;;5067367;28;20129;-67
2022/04/07 10:30:48;;;;;;;12.63;1.73;;;;;;;;;;5067210;28;20391;-67
2022/04/07 10:33:32;;;;;;;14.35;1.40;;;;;;;;;;5067402;28;20071;-67
2022/04/07 10:35:59;;;;;;;12.60;1.38;;;;;;;;;;5049099;28;20059;-67
2022/04/07 10:38:38;;;;;;;7.70;1.10;;;;;;;;;;5048064;28;20124;-67
2022/04/07 10:41:04;;;;;;;7.90;1.13;;;;;;;;;;5048509;28;20049;-67
2022/04/07 10:43:31;;;;;;;10.05;1.33;;;;;;;;;;5049496;28;20170;-67
2022/04/07 10:46:09;;;;;;;12.32;1.17;;;;;;;;;;5067094;28;20041;-67
2022/04/07 10:48:36;;;;;;;14.40;1.88;;;;;;;;;;5065420;28;20111;-67
2022/04/07 10:51:04;;;;;;;14.80;1.58;;;;;;;;;;5058922;28;20044;-67
2022/04/07 10:53:36;;;;;;;12.82;1.50;;;;;;;;;;5054097;28;20056;-67
2022/04/07 10:56:05;;;;;;;10.07;1.00;;;;;;;;;;5065800;28;20075;-67
2022/04/07 10:58:46;;;;;;;8.23;1.13;;;;;;;;;;5064414;28;20040;-67
2022/04/07 11:01:14;;;;;;;9.95;1.33;;;;;;;;;;5066786;28;20044;-68
2022/04/07 11:03:41;;;;;;;6.97;1.13;;;;;;;;;;5061632;28;20505;-67
2022/04/07 11:06:08;;;;;;;8.25;1.48;;;;;;;;;;5047293;28;20380;-68
2022/04/07 11:08:35;;;;;;;10.18;1.05;;;;;;;;;;5048696;28;20045;-68
2022/04/07 11:11:01;;;;;;;12.75;1.42;;;;;;;;;;5051946;28;20045;-70
2022/04/07 11:13:43;;;;;;;11.57;1.40;;;;;;;;;;5052711;28;20417;-67
2022/04/07 11:16:24;;;;;;;14.63;1.27;;;;;;;;;;5063854;28;20048;-67
2022/04/07 11:19:00;;;;;;;10.55;1.63;;;;;;;;;;5061849;28;20045;-67
2022/04/07 11:21:26;;;;;;;6.70;1.10;;;;;;;;;;5041740;28;20041;-67
2022/04/07 11:23:53;;;;;;;7.88;1.00;;;;;;;;;;5047696;28;20103;-69
2022/04/07 11:26:21;;;;;;;12.70;1.45;;;;;;;;;;5065476;28;20115;-67
2022/04/07 11:28:59;;;;;;;21.90;2.70;;;;;;;;;;5064475;28;20536;-67
2022/04/07 11:31:45;;;;;;;29.70;2.20;;;;;;;;;;5045497;28;20091;-67
2022/04/07 11:34:30;;;;;;;9.60;1.63;;;;;;;;;;5063201;28;20036;-67
2022/04/07 11:36:56;;;;;;;14.75;1.98;;;;;;;;;;5044400;28;20044;-67
2022/04/07 11:39:23;;;;;;;9.98;1.60;;;;;;;;;;5063482;28;20036;-69
2022/04/07 11:41:49;;;;;;;13.02;1.40;;;;;;;;;;5060979;28;20090;-66
2022/04/07 11:44:17;;;;;;;16.23;2.17;;;;;;;;;;5058506;28;20852;-66
2022/04/07 11:46:43;;;;;;;18.95;2.90;;;;;;;;;;5040761;28;20040;-66
2022/04/07 11:49:11;;;;;;;10.23;2.10;;;;;;;;;;5055936;28;20063;-66
2022/04/07 11:51:39;;;;;;;10.20;1.20;;;;;;;;;;5059067;28;20106;-66
2022/04/07 11:54:06;;;;;;;16.87;2.20;;;;;;;;;;5065578;28;20440;-66
2022/04/07 11:56:32;;;;;;;10.93;1.65;;;;;;;;;;5065634;28;20037;-66
2022/04/07 11:59:01;;;;;;;10.75;1.45;;;;;;;;;;5048140;28;20525;-67
2022/04/07 12:01:28;;;;;;;12.02;1.63;;;;;;;;;;5052699;28;20072;-66
2022/04/07 12:03:56;;;;;;;7.93;1.33;;;;;;;;;;5058877;28;20072;-67
2022/04/07 12:06:24;;;;;;;11.45;1.42;;;;;;;;;;5065977;28;20112;-67
2022/04/07 12:08:51;;;;;;;14.98;1.50;;;;;;;;;;5066386;28;20055;-66
2022/04/07 12:11:19;;;;;;;10.45;1.60;;;;;;;;;;5051664;28;20045;-66
2022/04/07 12:13:45;;;;;;;11.18;1.52;;;;;;;;;;5047012;28;20475;-66
2022/04/07 12:16:12;;;;;;;9.48;1.92;;;;;;;;;;5046678;28;20048;-66
2022/04/07 12:18:38;;;;;;;9.57;1.73;;;;;;;;;;5057160;28;20529;-66
2022/04/07 12:21:06;;;;;;;10.98;1.20;;;;;;;;;;5051693;28;20090;-66
2022/04/07 12:23:33;;;;;;;12.02;1.40;;;;;;;;;;5046279;28;20056;-66
2022/04/07 12:26:00;;;;;;;8.32;1.40;;;;;;;;;;5039348;28;20040;-65
2022/04/07 12:28:38;;;;;;;13.43;1.85;;;;;;;;;;5065235;28;20045;-65
2022/04/07 12:31:05;;;;;;;12.40;1.65;;;;;;;;;;5049617;28;20453;-67
2022/04/07 12:33:45;;;;;;;12.82;1.52;;;;;;;;;;5051788;28;20055;-68
2022/04/07 12:36:12;;;;;;;10.27;1.60;;;;;;;;;;5062098;28;20476;-68
2022/04/07 12:38:39;;;;;;;22.02;1.80;;;;;;;;;;5063114;28;20041;-68
2022/04/07 12:41:10;;;;;;;4.63;0.85;;;;;;;;;;5056762;28;20033;-68
2022/04/07 12:43:50;;;;;;;11.23;1.40;;;;;;;;;;5060753;28;20150;-68
2022/04/07 12:46:18;;;;;;;5.85;0.95;;;;;;;;;;5061454;28;20478;-68
2022/04/07 12:49:03;;;;;;;6.88;1.05;;;;;;;;;;5058184;28;20041;-68
2022/04/07 12:51:30;;;;;;;9.85;1.60;;;;;;;;;;5050945;28;20095;-68
2022/04/07 12:54:06;;;;;;;11.20;1.60;;;;;;;;;;5054572;28;20040;-68
2022/04/07 12:56:33;;;;;;;15.90;0.80;;;;;;;;;;5036868;28;20799;-68
2022/04/07 12:59:03;;;;;;;11.40;1.70;;;;;;;;;;5043714;28;20090;-69
2022/04/07 13:01:30;;;;;;;5.25;0.70;;;;;;;;;;5056394;28;20053;-68
2022/04/07 13:03:56;;;;;;;6.30;1.05;;;;;;;;;;5060716;28;20486;-68
2022/04/07 13:06:24;;;;;;;6.45;0.88;;;;;;;;;;5059032;28;20060;-68
2022/04/07 13:08:51;;;;;;;6.53;0.77;;;;;;;;;;5048859;28;20068;-68
2022/04/07 13:11:40;;;;;;;5.07;0.40;;;;;;;;;;5059041;28;20489;-68
2022/04/07 13:14:07;;;;;;;2.75;0.50;;;;;;;;;;5059591;28;20062;-68
2022/04/07 13:16:35;;;;;;;4.40;0.40;;;;;;;;;;5059768;28;20498;-68
2022/04/07 13:19:01;;;;;;;3.63;0.65;;;;;;;;;;5060464;28;20428;-67
2022/04/07 13:21:28;;;;;;;4.45;0.70;;;;;;;;;;5059396;28;20037;-68
2022/04/07 13:23:54;;;;;;;4.55;0.80;;;;;;;;;;5052408;28;20128;-70
2022/04/07 13:26:21;;;;;;;5.68;1.20;;;;;;;;;;5053624;28;20102;-68
2022/04/07 13:28:48;;;;;;;11.27;1.30;;;;;;;;;;5058849;28;20083;-68
2022/04/07 13:31:14;;;;;;;8.18;0.70;;;;;;;;;;5059432;28;20048;-67
2022/04/07 13:33:40;;;;;;;7.97;0.90;;;;;;;;;;5057922;28;20044;-68
2022/04/07 13:36:06;;;;;;;6.35;0.85;;;;;;;;;;5047181;28;20047;-67
2022/04/07 13:38:33;;;;;;;7.55;1.27;;;;;;;;;;5040705;28;20047;-68
2022/04/07 13:41:00;;;;;;;6.45;1.00;;;;;;;;;;5056436;28;20499;-68
2022/04/07 13:43:28;;;;;;;6.68;1.05;;;;;;;;;;5044072;28;20052;-68
2022/04/07 13:45:54;;;;;;;9.07;1.80;;;;;;;;;;5059612;28;20040;-69
2022/04/07 13:48:21;;;;;;;7.93;1.48;;;;;;;;;;5058143;28;20040;-68
2022/04/07 13:50:48;;;;;;;4.90;0.70;;;;;;;;;;5060449;28;20052;-69
2022/04/07 13:53:16;;;;;;;7.40;0.75;;;;;;;;;;5058762;28;20501;-70
2022/04/07 13:55:44;;;;;;;7.70;0.93;;;;;;;;;;5059767;28;20096;-70
2022/04/07 13:58:10;;;;;;;3.13;0.57;;;;;;;;;;5039287;28;20127;-70
2022/04/07 14:00:38;;;;;;;5.38;0.60;;;;;;;;;;5059094;28;20041;-70
2022/04/07 14:03:05;;;;;;;7.20;1.20;;;;;;;;;;5059905;28;20045;-69
2022/04/07 14:05:31;;;;;;;5.47;0.80;;;;;;;;;;5058992;28;20143;-70
2022/04/07 14:07:58;;;;;;;8.13;0.88;;;;;;;;;;5040450;28;20463;-70
2022/04/07 14:10:24;;;;;;;7.97;1.10;;;;;;;;;;5063220;28;20061;-71
2022/04/07 14:12:50;;;;;;;7.80;1.13;;;;;;;;;;5046717;28;20052;-70
2022/04/07 14:15:16;;;;;;;6.07;1.17;;;;;;;;;;5063547;28;20044;-69
2022/04/07 14:17:43;;;;;;;21.90;1.45;;;;;;;;;;5062195;28;20051;-70
2022/04/07 14:20:11;;;;;;;11.73;1.10;;;;;;;;;;5059482;28;20040;-70
2022/04/07 14:22:38;;;;;;;4.28;1.00;;;;;;;;;;5060644;28;20039;-69
2022/04/07 14:25:04;;;;;;;6.55;1.13;;;;;;;;;;5062625;28;20062;-68
2022/04/07 14:27:30;;;;;;;5.22;1.00;;;;;;;;;;5053146;28;20040;-69
2022/04/07 14:29:57;;;;;;;4.03;1.00;;;;;;;;;;5061917;28;20036;-69
2022/04/07 14:32:23;;;;;;;3.50;0.70;;;;;;;;;;5065555;28;20127;-69
2022/04/07 14:34:49;;;;;;;14.55;1.20;;;;;;;;;;5056740;28;20109;-69
2022/04/07 14:37:15;;;;;;;9.13;1.08;;;;;;;;;;5055807;28;20098;-69
2022/04/07 14:39:42;;;;;;;4.32;0.47;;;;;;;;;;5053761;28;20048;-69